Pensacola Naval Air Station/Forrest Sherman field
KNPA : now visible

Airfield :











YOU CAN JOIN US ON...

 
LOGIN :

Register | Disclaimer

   EN    FR    IT 

 









Legend :    VFR   Marginal VFR   IFR   Intensive IFR   Very Intensive IFR
Visi :
Ceiling :
>= 8 km
>= 3000ft
5 to 8 km
1000 to 3000 ft
1500m to 5 km
500 to 1000 ft
800 to 1500m
200 to 500 ft
< 800m
< 200 ft
Symbols :   Thunderstorms  Fog  Heavy snow  Heavy precipitations  Wind > 20 kt






- Airport Elevation : 28 ft


KNPA - Pensacola Naval Air Station/Forrest Sherman field

CURRENT METAR :
  • 021534Z AUTO 13010KT 4SM -RA FEW023 BKN044 OVC075 25/22 A3007 RMK AO2 P0002 T02500222 $

EXPIRED METARs :
  • 021456Z AUTO 32003KT 5SM RA BR FEW021 BKN049 OVC120 27/25 A3006 RMK AO2 RAB10 SLP182 P0003 6//// T02720250 51011 $
  • 020256Z AUTO 18004KT 10SM CLR 27/23 A3003 RMK AO2 SLP171 T02670233 53004 $

Expired Forecast.
KZJX FIR / North America



MET'MAP, your aeronautical weather chart ! - Copyright ORBIFLY December 2007 - Disclaimer

ORBIFLY MET'MAP TEAM :

Programming & Development : Alexandra Zaïnal
Original concept : Baudouin d'Aumeries
Technical & hardware support : Manuel Goepfert
Assistance : Marc-Olivier Méhu




SOURCES & CREDITS :

   NOAA       Earth
Advisory